Time;durP1;ratioP1;P1;durP2;ratioP2;P2;SDS_P1;SDS_P2;PMS_P1;PMS_P2;Temp;Humidity;BMP_temperature;BMP_pressure;BME280_temperature;BME280_humidity;BME280_pressure;Samples;Min_cycle;Max_cycle;Signal;HPM_P1;HPM_P2
2023/09/26 00:00:20;;;;;;;5.50;5.00;;;;;;;;;;5076671;28;20017;-67
2023/09/26 00:02:49;;;;;;;6.03;4.95;;;;;;;;;;5083509;28;20020;-67
2023/09/26 00:05:15;;;;;;;5.10;4.60;;;;;;;;;;5076538;28;20042;-67
2023/09/26 00:07:42;;;;;;;6.57;4.47;;;;;;;;;;5079061;28;20688;-67
2023/09/26 00:10:12;;;;;;;5.30;4.80;;;;;;;;;;5076127;28;20024;-67
2023/09/26 00:12:38;;;;;;;5.47;4.95;;;;;;;;;;5071912;28;20024;-67
2023/09/26 00:15:05;;;;;;;5.10;4.65;;;;;;;;;;5085149;28;20058;-67
2023/09/26 00:17:31;;;;;;;7.95;5.28;;;;;;;;;;5075829;28;20025;-67
2023/09/26 00:19:57;;;;;;;6.75;5.18;;;;;;;;;;5084993;28;20106;-67
2023/09/26 00:22:24;;;;;;;8.32;5.40;;;;;;;;;;5084823;28;20079;-67
2023/09/26 00:24:51;;;;;;;13.23;5.32;;;;;;;;;;5074432;28;20465;-67
2023/09/26 00:27:20;;;;;;;7.43;5.78;;;;;;;;;;5077954;28;20535;-67
2023/09/26 00:29:46;;;;;;;9.18;6.47;;;;;;;;;;5087088;28;20016;-67
2023/09/26 00:32:12;;;;;;;7.00;6.30;;;;;;;;;;5086951;28;20148;-67
2023/09/26 00:34:38;;;;;;;7.35;6.25;;;;;;;;;;5077064;28;20024;-67
2023/09/26 00:37:04;;;;;;;7.00;5.70;;;;;;;;;;5081427;28;20024;-67
2023/09/26 00:39:31;;;;;;;6.63;5.82;;;;;;;;;;5077998;28;20840;-67
2023/09/26 00:41:57;;;;;;;7.00;5.75;;;;;;;;;;5079022;28;20094;-67
2023/09/26 00:44:23;;;;;;;10.93;6.78;;;;;;;;;;5080546;28;20077;-68
2023/09/26 00:46:49;;;;;;;7.63;6.50;;;;;;;;;;5084398;28;20518;-67
2023/09/26 00:49:15;;;;;;;7.68;6.53;;;;;;;;;;5102453;28;20047;-67
2023/09/26 00:51:41;;;;;;;8.48;6.40;;;;;;;;;;5097440;28;20020;-67
2023/09/26 00:54:09;;;;;;;6.82;6.13;;;;;;;;;;5104741;28;20131;-67
2023/09/26 00:56:35;;;;;;;8.75;6.03;;;;;;;;;;5102793;28;20084;-67
2023/09/26 00:59:02;;;;;;;10.50;6.93;;;;;;;;;;5094712;28;20020;-67
2023/09/26 01:01:30;;;;;;;10.30;5.72;;;;;;;;;;5098858;28;20035;-67
2023/09/26 01:03:56;;;;;;;10.57;6.35;;;;;;;;;;5107383;28;20027;-67
2023/09/26 01:06:22;;;;;;;7.15;5.57;;;;;;;;;;5109281;28;20411;-67
2023/09/26 01:08:48;;;;;;;7.80;5.38;;;;;;;;;;5096203;28;20082;-67
2023/09/26 01:11:15;;;;;;;9.23;6.25;;;;;;;;;;5095891;28;20111;-67
2023/09/26 01:13:41;;;;;;;9.95;7.00;;;;;;;;;;5100380;28;20016;-67
2023/09/26 01:16:17;;;;;;;9.38;7.35;;;;;;;;;;5099172;28;20039;-67
2023/09/26 01:18:43;;;;;;;8.95;7.85;;;;;;;;;;5098566;28;20095;-68
2023/09/26 01:21:10;;;;;;;9.25;7.28;;;;;;;;;;5106752;28;20054;-67
2023/09/26 01:23:40;;;;;;;7.78;6.18;;;;;;;;;;5098161;28;20020;-68
2023/09/26 01:26:07;;;;;;;6.32;5.70;;;;;;;;;;5100178;28;20103;-67
2023/09/26 01:28:33;;;;;;;9.10;5.65;;;;;;;;;;5099084;28;20039;-67
2023/09/26 01:30:59;;;;;;;6.38;5.75;;;;;;;;;;5100854;28;20024;-67
2023/09/26 01:33:25;;;;;;;7.03;6.32;;;;;;;;;;5092565;28;20036;-67
2023/09/26 01:35:51;;;;;;;7.47;6.55;;;;;;;;;;5102942;28;20027;-67
2023/09/26 01:38:21;;;;;;;8.07;6.93;;;;;;;;;;5105521;28;20027;-66
2023/09/26 01:40:47;;;;;;;8.95;6.70;;;;;;;;;;5105578;28;20028;-67
2023/09/26 01:43:14;;;;;;;8.90;6.85;;;;;;;;;;5094984;28;20078;-67
2023/09/26 01:45:40;;;;;;;8.23;7.07;;;;;;;;;;5097692;28;20027;-67
2023/09/26 01:48:06;;;;;;;7.63;6.70;;;;;;;;;;5103982;28;20035;-67
2023/09/26 01:50:34;;;;;;;7.93;6.90;;;;;;;;;;5094236;28;20602;-67
2023/09/26 01:53:00;;;;;;;8.38;6.97;;;;;;;;;;5098066;28;20087;-67
2023/09/26 01:55:26;;;;;;;6.70;5.90;;;;;;;;;;5101320;28;20019;-67
2023/09/26 01:57:52;;;;;;;7.07;6.45;;;;;;;;;;5108535;28;20035;-67
2023/09/26 02:00:19;;;;;;;9.35;7.20;;;;;;;;;;5096767;28;20048;-67
2023/09/26 02:02:49;;;;;;;8.85;6.70;;;;;;;;;;5085686;28;20067;-67
2023/09/26 02:05:19;;;;;;;5.95;5.45;;;;;;;;;;5104636;28;20092;-66
2023/09/26 02:07:47;;;;;;;10.32;7.10;;;;;;;;;;5098369;28;20028;-67
2023/09/26 02:10:14;;;;;;;8.23;6.40;;;;;;;;;;5096863;28;20024;-67
2023/09/26 02:12:42;;;;;;;7.07;6.03;;;;;;;;;;5096405;28;20058;-67
2023/09/26 02:15:08;;;;;;;7.80;6.20;;;;;;;;;;5109807;28;20024;-67
2023/09/26 02:17:37;;;;;;;9.50;7.63;;;;;;;;;;5099330;28;20037;-66
2023/09/26 02:20:08;;;;;;;9.70;8.00;;;;;;;;;;5089028;28;20035;-67
2023/09/26 02:22:35;;;;;;;9.55;7.38;;;;;;;;;;5101923;28;20019;-66
2023/09/26 02:25:01;;;;;;;8.70;7.82;;;;;;;;;;5104324;28;20029;-67
2023/09/26 02:27:27;;;;;;;9.05;7.22;;;;;;;;;;5094715;28;20020;-66
2023/09/26 02:29:53;;;;;;;8.80;6.82;;;;;;;;;;5104448;28;20031;-67
2023/09/26 02:32:19;;;;;;;8.73;7.47;;;;;;;;;;5103224;28;20034;-67
2023/09/26 02:34:45;;;;;;;7.65;6.90;;;;;;;;;;5083983;28;20119;-67
2023/09/26 02:37:11;;;;;;;7.93;7.13;;;;;;;;;;5098536;28;20036;-67
2023/09/26 02:39:37;;;;;;;8.70;7.45;;;;;;;;;;5109708;28;20019;-66
2023/09/26 02:42:03;;;;;;;8.80;7.75;;;;;;;;;;5112989;28;20023;-67
2023/09/26 02:44:29;;;;;;;8.43;6.75;;;;;;;;;;5100583;28;20024;-66
2023/09/26 02:46:55;;;;;;;9.23;7.65;;;;;;;;;;5096310;28;20063;-66
2023/09/26 02:49:21;;;;;;;9.68;7.38;;;;;;;;;;5104274;28;20465;-67
2023/09/26 02:51:48;;;;;;;11.30;8.43;;;;;;;;;;5100781;28;20142;-68
2023/09/26 02:54:14;;;;;;;10.10;7.78;;;;;;;;;;5088885;28;20076;-66
2023/09/26 02:56:40;;;;;;;12.50;8.23;;;;;;;;;;5106798;28;20039;-68
2023/09/26 02:59:06;;;;;;;9.38;8.07;;;;;;;;;;5096219;28;20028;-68
2023/09/26 03:01:32;;;;;;;8.75;7.18;;;;;;;;;;5102794;28;20103;-69
2023/09/26 03:03:58;;;;;;;9.30;7.80;;;;;;;;;;5109488;28;20085;-67
2023/09/26 03:06:24;;;;;;;7.93;7.13;;;;;;;;;;5111463;28;20027;-67
2023/09/26 03:08:50;;;;;;;9.85;6.78;;;;;;;;;;5098490;28;20032;-68
2023/09/26 03:11:16;;;;;;;10.90;7.82;;;;;;;;;;5100089;28;20375;-67
2023/09/26 03:13:42;;;;;;;7.75;6.68;;;;;;;;;;5107814;28;20055;-67
2023/09/26 03:16:08;;;;;;;7.60;6.80;;;;;;;;;;5101365;28;20023;-67
2023/09/26 03:18:35;;;;;;;8.02;6.93;;;;;;;;;;5101103;28;20197;-67
2023/09/26 03:21:05;;;;;;;11.48;8.48;;;;;;;;;;5107530;28;20399;-67
2023/09/26 03:23:31;;;;;;;;;;;;;;;;;;5095186;28;20024;-67
2023/09/26 03:25:57;;;;;;;8.48;7.57;;;;;;;;;;5100203;28;20044;-67
2023/09/26 03:28:23;;;;;;;9.00;7.97;;;;;;;;;;5084908;28;20056;-67
2023/09/26 03:30:49;;;;;;;15.32;8.70;;;;;;;;;;5106207;28;20031;-67
2023/09/26 03:33:15;;;;;;;9.15;8.25;;;;;;;;;;5103088;28;20388;-66
2023/09/26 03:35:41;;;;;;;12.60;8.20;;;;;;;;;;5091374;28;20027;-67
2023/09/26 03:38:07;;;;;;;10.55;8.25;;;;;;;;;;5104519;28;20023;-66
2023/09/26 03:40:33;;;;;;;10.45;8.70;;;;;;;;;;5105806;28;20024;-66
2023/09/26 03:42:59;;;;;;;10.27;8.52;;;;;;;;;;5087274;28;20095;-67
2023/09/26 03:45:25;;;;;;;11.30;8.52;;;;;;;;;;5088708;28;20024;-66
2023/09/26 03:47:51;;;;;;;10.55;8.20;;;;;;;;;;5103843;28;20082;-67
2023/09/26 03:50:17;;;;;;;11.80;7.90;;;;;;;;;;5098687;28;20016;-66
2023/09/26 03:52:43;;;;;;;9.80;8.70;;;;;;;;;;5099840;28;20047;-67
2023/09/26 03:55:09;;;;;;;12.90;9.68;;;;;;;;;;5107207;28;20027;-66
2023/09/26 03:57:35;;;;;;;14.45;9.35;;;;;;;;;;5100246;28;20052;-66
2023/09/26 04:00:12;;;;;;;11.32;8.88;;;;;;;;;;5099401;28;20080;-66
2023/09/26 04:02:39;;;;;;;10.75;9.52;;;;;;;;;;5080672;28;20021;-67
2023/09/26 04:05:05;;;;;;;11.00;9.68;;;;;;;;;;5096366;28;20365;-67
2023/09/26 04:07:31;;;;;;;12.40;10.35;;;;;;;;;;5093292;28;20852;-66
2023/09/26 04:09:57;;;;;;;10.75;9.55;;;;;;;;;;5091325;28;20456;-66
2023/09/26 04:12:23;;;;;;;10.43;9.27;;;;;;;;;;5090593;28;20099;-66
2023/09/26 04:14:49;;;;;;;11.50;9.55;;;;;;;;;;5093608;28;20124;-66
2023/09/26 04:17:15;;;;;;;13.02;9.68;;;;;;;;;;5092421;28;20016;-66
2023/09/26 04:19:41;;;;;;;13.43;11.18;;;;;;;;;;5095033;28;20449;-67
2023/09/26 04:22:07;;;;;;;20.52;14.30;;;;;;;;;;5094443;28;20055;-67
2023/09/26 04:24:33;;;;;;;15.48;12.40;;;;;;;;;;5091613;28;20016;-66
2023/09/26 04:26:59;;;;;;;15.35;12.02;;;;;;;;;;5092940;28;20012;-66
2023/09/26 04:29:25;;;;;;;18.17;15.07;;;;;;;;;;5094075;28;20069;-67
2023/09/26 04:31:51;;;;;;;17.10;13.80;;;;;;;;;;5091783;28;20024;-67
2023/09/26 04:34:17;;;;;;;18.42;14.48;;;;;;;;;;5090902;28;20039;-66
2023/09/26 04:36:43;;;;;;;18.00;13.35;;;;;;;;;;5079366;28;20058;-66
2023/09/26 04:39:09;;;;;;;17.80;14.02;;;;;;;;;;5092312;28;20114;-66
2023/09/26 04:41:35;;;;;;;19.52;15.02;;;;;;;;;;5093826;28;20036;-66
2023/09/26 04:44:01;;;;;;;18.70;14.05;;;;;;;;;;5093373;28;20512;-67
2023/09/26 04:46:27;;;;;;;22.13;15.77;;;;;;;;;;5094998;28;20134;-66
2023/09/26 04:48:53;;;;;;;18.75;14.73;;;;;;;;;;5105990;28;20107;-67
2023/09/26 04:51:20;;;;;;;21.40;16.27;;;;;;;;;;5094203;28;20444;-66
2023/09/26 04:53:46;;;;;;;21.85;16.83;;;;;;;;;;5101653;28;20028;-66
2023/09/26 04:56:12;;;;;;;21.17;16.20;;;;;;;;;;5108737;28;20024;-66
2023/09/26 04:58:38;;;;;;;22.70;16.50;;;;;;;;;;5094508;28;20054;-66
2023/09/26 05:01:14;;;;;;;21.38;17.02;;;;;;;;;;5098004;28;20024;-67
2023/09/26 05:03:40;;;;;;;20.48;15.93;;;;;;;;;;5098645;28;20099;-67
2023/09/26 05:06:07;;;;;;;22.95;17.17;;;;;;;;;;5110664;28;20024;-66
2023/09/26 05:08:33;;;;;;;24.17;17.48;;;;;;;;;;5092465;28;20021;-67
2023/09/26 05:10:59;;;;;;;25.70;17.98;;;;;;;;;;5091927;28;20119;-67
2023/09/26 05:13:25;;;;;;;24.23;17.50;;;;;;;;;;5104852;28;20027;-67
2023/09/26 05:15:51;;;;;;;18.15;15.25;;;;;;;;;;5099257;28;20058;-71
2023/09/26 05:18:18;;;;;;;21.60;16.45;;;;;;;;;;5101603;28;20437;-70
2023/09/26 05:20:44;;;;;;;24.20;17.50;;;;;;;;;;5102984;28;20028;-71
2023/09/26 05:23:10;;;;;;;24.00;18.63;;;;;;;;;;5104409;28;20039;-69
2023/09/26 05:25:36;;;;;;;25.73;18.80;;;;;;;;;;5094345;28;20024;-70
2023/09/26 05:28:02;;;;;;;23.58;17.90;;;;;;;;;;5102498;28;20031;-69
2023/09/26 05:30:28;;;;;;;21.05;16.92;;;;;;;;;;5095557;28;20460;-69
2023/09/26 05:32:54;;;;;;;21.90;16.90;;;;;;;;;;5090321;28;20042;-70
2023/09/26 05:35:21;;;;;;;20.80;17.35;;;;;;;;;;5092319;28;20052;-72
2023/09/26 05:37:47;;;;;;;22.15;16.70;;;;;;;;;;5106577;28;20082;-70
2023/09/26 05:40:13;;;;;;;20.08;15.93;;;;;;;;;;5108747;28;20028;-69
2023/09/26 05:42:40;;;;;;;25.77;17.88;;;;;;;;;;5095880;28;20043;-70
2023/09/26 05:45:06;;;;;;;26.15;18.98;;;;;;;;;;5097718;28;20043;-70
2023/09/26 05:47:32;;;;;;;21.90;17.40;;;;;;;;;;5097744;28;20100;-72
2023/09/26 05:50:00;;;;;;;29.17;18.00;;;;;;;;;;5098292;28;20028;-70
2023/09/26 05:52:26;;;;;;;23.75;18.10;;;;;;;;;;5099823;28;20012;-70
2023/09/26 05:54:52;;;;;;;23.08;16.48;;;;;;;;;;5102837;28;20800;-70
2023/09/26 05:57:18;;;;;;;23.08;17.83;;;;;;;;;;5101920;28;20028;-70
2023/09/26 05:59:44;;;;;;;22.83;17.05;;;;;;;;;;5095015;28;20044;-71
2023/09/26 06:02:14;;;;;;;21.98;16.63;;;;;;;;;;5101722;28;20044;-70
2023/09/26 06:04:41;;;;;;;19.73;15.13;;;;;;;;;;5105614;28;20020;-70
2023/09/26 06:07:07;;;;;;;19.48;15.05;;;;;;;;;;5103563;28;20023;-70
2023/09/26 06:09:34;;;;;;;19.10;14.98;;;;;;;;;;5098299;28;20020;-70
2023/09/26 06:12:01;;;;;;;17.83;14.13;;;;;;;;;;5108805;28;20028;-70
2023/09/26 06:14:27;;;;;;;16.98;13.45;;;;;;;;;;5108230;28;20110;-70
2023/09/26 06:16:53;;;;;;;47.88;23.13;;;;;;;;;;5099175;28;20516;-70
2023/09/26 06:19:19;;;;;;;33.28;17.83;;;;;;;;;;5103038;28;20043;-70
2023/09/26 06:21:45;;;;;;;24.50;16.30;;;;;;;;;;5111970;28;20027;-70
2023/09/26 06:24:11;;;;;;;20.63;14.18;;;;;;;;;;5100953;28;20142;-69
2023/09/26 06:26:37;;;;;;;20.65;16.05;;;;;;;;;;5101225;28;20036;-70
2023/09/26 06:29:03;;;;;;;17.30;13.93;;;;;;;;;;5105228;28;20090;-70
2023/09/26 06:31:29;;;;;;;18.75;14.10;;;;;;;;;;5109703;28;20469;-69
2023/09/26 06:33:59;;;;;;;16.10;12.73;;;;;;;;;;5102852;28;20031;-70
2023/09/26 06:36:25;;;;;;;;;;;;;;;;;;5102100;28;20027;-70
2023/09/26 06:38:51;;;;;;;16.40;12.85;;;;;;;;;;5107592;28;19908;-70
2023/09/26 06:41:17;;;;;;;15.90;13.20;;;;;;;;;;5105208;28;20030;-70
2023/09/26 06:43:43;;;;;;;15.82;11.60;;;;;;;;;;5100371;28;20020;-70
2023/09/26 06:46:10;;;;;;;18.75;12.13;;;;;;;;;;5098071;28;20381;-70
2023/09/26 06:48:39;;;;;;;13.00;10.27;;;;;;;;;;5107234;28;20131;-70
2023/09/26 06:51:05;;;;;;;14.85;11.15;;;;;;;;;;5097396;28;20024;-70
2023/09/26 06:53:32;;;;;;;13.55;10.52;;;;;;;;;;5103077;28;20631;-70
2023/09/26 06:56:05;;;;;;;12.05;10.23;;;;;;;;;;5102988;28;20043;-74
2023/09/26 06:58:31;;;;;;;13.18;9.68;;;;;;;;;;5096196;28;20169;-68
2023/09/26 07:00:57;;;;;;;13.68;10.13;;;;;;;;;;5099776;28;20102;-68
2023/09/26 07:03:23;;;;;;;13.77;9.63;;;;;;;;;;5106878;28;20441;-68
2023/09/26 07:05:49;;;;;;;13.35;11.15;;;;;;;;;;5113476;28;20059;-70
2023/09/26 07:08:15;;;;;;;12.07;9.02;;;;;;;;;;5099804;28;20028;-68
2023/09/26 07:10:42;;;;;;;11.05;8.57;;;;;;;;;;5093106;28;20062;-69
2023/09/26 07:13:08;;;;;;;14.40;9.57;;;;;;;;;;5071831;28;20036;-69
2023/09/26 07:15:34;;;;;;;9.73;8.40;;;;;;;;;;5084004;28;20020;-68
2023/09/26 07:18:05;;;;;;;11.55;9.00;;;;;;;;;;5094747;28;20015;-70
2023/09/26 07:20:31;;;;;;;14.73;8.93;;;;;;;;;;5106276;28;20199;-69
2023/09/26 07:22:57;;;;;;;9.13;7.63;;;;;;;;;;5106152;28;20457;-70
2023/09/26 07:25:23;;;;;;;10.02;8.07;;;;;;;;;;5097658;28;20153;-69
2023/09/26 07:27:49;;;;;;;9.15;7.60;;;;;;;;;;5101278;28;20425;-69
2023/09/26 07:30:15;;;;;;;11.02;8.25;;;;;;;;;;5109956;28;20024;-68
2023/09/26 07:32:42;;;;;;;9.23;7.53;;;;;;;;;;5098154;28;20024;-70
2023/09/26 07:35:08;;;;;;;11.50;7.82;;;;;;;;;;5099511;28;20024;-70
2023/09/26 07:37:34;;;;;;;8.57;6.78;;;;;;;;;;5107644;28;20095;-70
2023/09/26 07:40:03;;;;;;;9.80;7.18;;;;;;;;;;5093902;28;20028;-70
2023/09/26 07:42:29;;;;;;;11.52;7.00;;;;;;;;;;5091819;28;20030;-69
2023/09/26 07:44:58;;;;;;;10.35;6.85;;;;;;;;;;5105378;28;20461;-69
2023/09/26 07:47:24;;;;;;;7.57;6.15;;;;;;;;;;5091859;28;20051;-69
2023/09/26 07:49:50;;;;;;;8.07;6.53;;;;;;;;;;5098326;28;20024;-69
2023/09/26 07:52:16;;;;;;;8.63;6.28;;;;;;;;;;5104417;28;20027;-68
2023/09/26 07:54:42;;;;;;;8.18;7.00;;;;;;;;;;5107404;28;20016;-68
2023/09/26 07:57:08;;;;;;;8.10;5.90;;;;;;;;;;5086778;28;20384;-69
2023/09/26 07:59:34;;;;;;;11.02;6.10;;;;;;;;;;5092272;28;20012;-69
2023/09/26 08:02:00;;;;;;;10.10;6.00;;;;;;;;;;5087303;28;20468;-68
2023/09/26 08:04:26;;;;;;;7.38;5.90;;;;;;;;;;5099931;28;20042;-69
2023/09/26 08:06:52;;;;;;;11.93;5.53;;;;;;;;;;5106221;28;20480;-69
2023/09/26 08:09:18;;;;;;;9.85;5.70;;;;;;;;;;5095221;28;20020;-68
2023/09/26 08:11:44;;;;;;;9.73;5.40;;;;;;;;;;5100534;28;20396;-69
2023/09/26 08:14:10;;;;;;;8.63;5.22;;;;;;;;;;5103683;28;20127;-69
2023/09/26 08:16:36;;;;;;;9.98;5.47;;;15.40;99.90;;;;;;5106830;28;20673;-69
2023/09/26 08:19:01;;;;;;;7.18;5.63;;;15.60;99.90;;;;;;5097631;28;20020;-69
2023/09/26 08:21:27;;;;;;;8.77;5.15;;;15.60;99.90;;;;;;5104748;28;20380;-69
2023/09/26 08:23:54;;;;;;;7.95;5.50;;;15.60;99.90;;;;;;5109213;28;20076;-69
2023/09/26 08:26:20;;;;;;;13.25;5.97;;;15.70;99.90;;;;;;5097871;28;20027;-69
2023/09/26 08:28:45;;;;;;;7.60;5.20;;;15.80;99.90;;;;;;5098226;28;20027;-70
2023/09/26 08:31:14;;;;;;;7.85;5.10;;;15.90;99.90;;;;;;5101091;28;20024;-68
2023/09/26 08:33:40;;;;;;;9.52;5.63;;;16.00;99.90;;;;;;5102191;28;20053;-69
2023/09/26 08:36:14;;;;;;;10.80;5.88;;;16.10;99.90;;;;;;5094422;28;20456;-70
2023/09/26 08:38:40;;;;;;;6.53;4.65;;;16.30;99.90;;;;;;5100000;28;20384;-69
2023/09/26 08:41:06;;;;;;;6.65;4.75;;;16.40;99.90;;;;;;5108792;28;20024;-69
2023/09/26 08:43:33;;;;;;;8.98;5.55;;;16.40;99.90;;;;;;5100403;28;20741;-69
2023/09/26 08:45:59;;;;;;;8.02;5.72;;;16.50;99.90;;;;;;5096054;28;20143;-69
2023/09/26 08:48:24;;;;;;;6.90;5.10;;;16.70;99.90;;;;;;5104870;28;20582;-69
2023/09/26 08:50:51;;;;;;;8.52;5.82;;;16.80;99.90;;;;;;5094074;28;20020;-70
2023/09/26 08:53:17;;;;;;;10.27;5.57;;;16.80;99.90;;;;;;5099350;28;20020;-69
2023/09/26 08:55:43;;;;;;;9.63;5.88;;;16.90;99.90;;;;;;5108678;28;20106;-70
2023/09/26 08:58:09;;;;;;;8.10;5.45;;;17.00;99.90;;;;;;5098492;28;20032;-69
2023/09/26 09:00:35;;;;;;;11.98;5.32;;;17.20;99.90;;;;;;5097311;28;20088;-69
2023/09/26 09:03:00;;;;;;;8.98;5.45;;;17.30;99.90;;;;;;5102849;28;20496;-70
2023/09/26 09:05:30;;;;;;;11.63;5.43;;;;;;;;;;5109540;28;20031;-68
2023/09/26 09:07:57;;;;;;;7.80;5.78;;;;;;;;;;5096046;28;20048;-68
2023/09/26 09:10:23;;;;;;;7.47;5.55;;;;;;;;;;5101504;28;20051;-69
2023/09/26 09:13:00;;;;;;;7.78;4.82;;;;;;;;;;5105005;28;20053;-69
2023/09/26 09:15:28;;;;;;;8.63;5.00;;;;;;;;;;5101076;28;20040;-69
2023/09/26 09:17:54;;;;;;;10.20;5.57;;;;;;;;;;5099452;28;20032;-67
2023/09/26 09:20:30;;;;;;;8.18;5.47;;;;;;;;;;5088961;28;20034;-67
2023/09/26 09:23:01;;;;;;;6.47;5.20;;;;;;;;;;5102559;28;20390;-68
2023/09/26 09:25:32;;;;;;;9.20;5.68;;;18.60;99.90;;;;;;5088391;28;20486;-64
2023/09/26 09:28:03;;;;;;;8.82;5.38;;;18.70;99.90;;;;;;5080760;28;20054;-65
2023/09/26 09:30:29;;;;;;;11.15;6.30;;;18.70;99.90;;;;;;5100230;28;20036;-64
2023/09/26 09:32:56;;;;;;;11.02;5.20;;;18.80;99.90;;;;;;5101669;28;20036;-64
2023/09/26 09:35:22;;;;;;;10.13;5.43;;;18.90;99.90;;;;;;5095717;28;20028;-64
2023/09/26 09:37:50;;;;;;;7.72;5.45;;;19.00;99.90;;;;;;5106821;28;20030;-64
2023/09/26 09:40:20;;;;;;;18.35;6.10;;;19.20;99.90;;;;;;5107156;28;20024;-68
2023/09/26 09:42:50;;;;;;;9.27;5.50;;;19.30;99.90;;;;;;5088022;28;20028;-64
2023/09/26 09:45:19;;;;;;;7.15;5.32;;;19.40;99.90;;;;;;5097594;28;20032;-67
2023/09/26 09:47:46;;;;;;;9.18;5.85;;;19.40;99.90;;;;;;5104933;28;20492;-64
2023/09/26 09:50:14;;;;;;;5.30;4.22;;;19.60;99.90;;;;;;5099679;28;20024;-68
2023/09/26 09:52:49;;;;;;;9.15;5.18;;;19.60;99.90;;;;;;5101403;28;20383;-64
2023/09/26 09:55:24;;;;;;;6.75;4.72;;;;;;;;;;5109606;28;20114;-68
2023/09/26 09:57:50;;;;;;;6.82;4.20;;;;;;;;;;5106772;28;20455;-64
2023/09/26 10:00:22;;;;;;;12.85;4.63;;;;;;;;;;5105453;28;20027;-68
2023/09/26 10:02:50;;;;;;;7.40;4.38;;;;;;;;;;5105166;28;20067;-62
2023/09/26 10:05:19;;;;;;;8.43;4.50;;;;;;;;;;5112863;28;20032;-66
2023/09/26 10:07:46;;;;;;;8.50;3.60;;;20.50;99.90;;;;;;5103591;28;20016;-62
2023/09/26 10:10:13;;;;;;;5.72;3.75;;;20.50;99.90;;;;;;5106173;28;20035;-65
2023/09/26 10:12:40;;;;;;;9.32;4.90;;;20.50;99.90;;;;;;5097228;28;20130;-62
2023/09/26 10:15:11;;;;;;;7.40;4.00;;;20.50;99.90;;;;;;5101429;28;20107;-62
2023/09/26 10:17:41;;;;;;;4.88;4.18;;;20.60;99.90;;;;;;5092048;28;20031;-62
2023/09/26 10:20:11;;;;;;;;;;;20.70;99.90;;;;;;5109586;28;20028;-62
2023/09/26 10:22:41;;;;;;;6.25;3.42;;;20.70;99.90;;;;;;5099272;28;19912;-62
2023/09/26 10:25:07;;;;;;;4.97;3.70;;;20.80;99.90;;;;;;5101902;28;20069;-62
2023/09/26 10:27:33;;;;;;;5.00;2.92;;;20.90;99.90;;;;;;5111590;28;20027;-61
2023/09/26 10:30:00;;;;;;;5.25;3.33;;;21.00;99.90;;;;;;5100934;28;20035;-62
2023/09/26 10:32:35;;;;;;;7.78;3.47;;;21.10;99.90;;;;;;5096848;28;20050;-62
2023/09/26 10:35:13;;;;;;;6.28;3.10;;;21.10;99.90;;;;;;5103403;28;20480;-62
2023/09/26 10:37:44;;;;;;;6.63;3.33;;;21.20;99.90;;;;;;5114162;28;20076;-61
2023/09/26 10:40:12;;;;;;;5.97;2.95;;;21.30;99.90;;;;;;5103112;28;20084;-61
2023/09/26 10:42:42;;;;;;;5.10;2.60;;;21.40;99.90;;;;;;5103923;28;20031;-62
2023/09/26 10:45:09;;;;;;;;;;;21.60;99.90;;;;;;5110983;28;20034;-61
2023/09/26 10:47:37;;;;;;;4.32;2.83;;;21.70;99.90;;;;;;5095062;28;19916;-61
2023/09/26 10:50:05;;;;;;;5.88;3.50;;;21.80;99.90;;;;;;5093118;28;20036;-62
2023/09/26 10:52:31;;;;;;;6.70;3.30;;;21.90;99.90;;;;;;5096571;28;20028;-62
2023/09/26 10:54:57;;;;;;;5.88;2.90;;;21.90;99.90;;;;;;5094572;28;20039;-62
2023/09/26 10:57:22;;;;;;;4.25;2.17;;;21.90;99.90;;;;;;5097850;28;20020;-62
2023/09/26 10:59:49;;;;;;;2.90;2.45;;;21.90;99.90;;;;;;5104934;28;20111;-62
2023/09/26 11:02:14;;;;;;;4.28;2.03;;;21.90;99.90;;;;;;5110352;28;20027;-65
2023/09/26 11:04:41;;;;;;;2.25;1.77;;;22.00;99.90;;;;;;5096539;28;20024;-62
2023/09/26 11:07:07;;;;;;;2.50;1.73;;;22.20;99.90;;;;;;5091840;28;20029;-61
2023/09/26 11:09:39;;;;;;;2.30;1.58;;;22.30;99.90;;;;;;5108968;28;20016;-63
2023/09/26 11:12:05;;;;;;;4.18;1.75;;;22.50;99.90;;;;;;5106949;28;20017;-62
2023/09/26 11:14:32;;;;;;;1.33;1.08;;;22.70;99.90;;;;;;5080018;28;20039;-63
2023/09/26 11:16:57;;;;;;;1.50;1.40;;;22.90;99.40;;;;;;5111220;28;20019;-63
2023/09/26 11:19:26;;;;;;;3.63;2.08;;;23.10;98.90;;;;;;5100215;28;20457;-64
2023/09/26 11:21:52;;;;;;;4.35;2.00;;;23.40;99.20;;;;;;5089318;28;20098;-63
2023/09/26 11:24:22;;;;;;;2.30;1.35;;;23.60;99.00;;;;;;5092004;28;20028;-63
2023/09/26 11:26:50;;;;;;;1.60;1.45;;;23.70;97.70;;;;;;5095498;28;20043;-62
2023/09/26 11:29:17;;;;;;;2.95;1.58;;;24.00;97.40;;;;;;5093504;28;20746;-66
2023/09/26 11:31:44;;;;;;;4.07;2.38;;;24.30;97.00;;;;;;5099851;28;20024;-62
2023/09/26 11:34:10;;;;;;;2.45;1.50;;;24.60;96.60;;;;;;5095333;28;20028;-63
2023/09/26 11:36:39;;;;;;;1.33;1.23;;;24.90;95.80;;;;;;5095851;28;20035;-62
2023/09/26 11:39:06;;;;;;;1.98;1.20;;;25.20;95.20;;;;;;5096018;28;20165;-63
2023/09/26 11:41:32;;;;;;;1.33;1.23;;;25.40;94.90;;;;;;5098837;28;20601;-63
2023/09/26 11:44:17;;;;;;;2.53;1.30;;;25.50;94.70;;;;;;5106695;28;20031;-62
2023/09/26 11:46:46;;;;;;;2.53;1.60;;;;;;;;;;5089051;28;20108;-62
2023/09/26 11:49:13;;;;;;;3.65;1.85;;;;;;;;;;5098807;28;20024;-66
2023/09/26 11:51:39;;;;;;;2.33;1.60;;;26.10;99.90;;;;;;5105989;28;20028;-62
2023/09/26 11:54:06;;;;;;;1.55;1.38;;;26.50;99.90;;;;;;5096376;28;20027;-63
2023/09/26 11:56:35;;;;;;;4.00;1.90;;;26.80;99.90;;;;;;5100306;28;20660;-63
2023/09/26 11:59:04;;;;;;;1.63;1.38;;;26.90;92.10;;;;;;5097508;28;20030;-63
2023/09/26 12:01:30;;;;;;;2.35;1.70;;;26.90;91.50;;;;;;5101720;28;20028;-62
2023/09/26 12:03:56;;;;;;;1.55;1.10;;;27.20;91.00;;;;;;5101384;28;20027;-62
2023/09/26 12:06:22;;;;;;;1.70;1.38;;;27.40;89.30;;;;;;5100873;28;20483;-63
2023/09/26 12:08:47;;;;;;;2.55;1.20;;;27.70;88.10;;;;;;5105970;28;20036;-62
2023/09/26 12:11:14;;;;;;;1.80;1.20;;;27.90;86.70;;;;;;5091193;28;20024;-66
2023/09/26 12:13:39;;;;;;;2.45;1.35;;;28.10;84.80;;;;;;5097001;28;20494;-63
2023/09/26 12:16:05;;;;;;;1.20;1.10;;;28.40;93.70;;;;;;5093366;28;20116;-63
2023/09/26 12:18:31;;;;;;;8.48;1.30;;;28.70;95.70;;;;;;5100257;28;20111;-62
2023/09/26 12:20:58;;;;;;;2.08;1.10;;;28.90;95.80;;;;;;5099420;28;20130;-62
2023/09/26 12:23:28;;;;;;;1.45;1.17;;;29.10;89.90;;;;;;5101872;28;20473;-62
2023/09/26 12:25:53;;;;;;;2.42;1.27;;;29.20;79.60;;;;;;5101857;28;20472;-62
2023/09/26 12:28:21;;;;;;;1.30;1.20;;;29.50;79.10;;;;;;5095454;28;20035;-63
2023/09/26 12:30:47;;;;;;;1.40;1.25;;;29.70;77.80;;;;;;5096206;28;20032;-62
2023/09/26 12:33:13;;;;;;;2.63;1.60;;;29.90;76.70;;;;;;5089401;28;20487;-67
2023/09/26 12:35:39;;;;;;;1.67;1.20;;;29.90;77.40;;;;;;5092288;28;20183;-63
2023/09/26 12:38:04;;;;;;;12.15;1.33;;;30.00;76.70;;;;;;5095437;28;20431;-63
2023/09/26 12:40:30;;;;;;;4.32;1.60;;;30.10;76.10;;;;;;5099494;28;20542;-63
2023/09/26 12:42:56;;;;;;;3.28;1.25;;;30.40;75.30;;;;;;5100377;28;20036;-62
2023/09/26 12:45:21;;;;;;;1.70;1.40;;;30.60;74.50;;;;;;5092655;28;20028;-63
2023/09/26 12:47:47;;;;;;;1.20;1.10;;;30.80;73.90;;;;;;5100112;28;20515;-62
2023/09/26 12:50:13;;;;;;;1.75;1.25;;;30.70;73.50;;;;;;5099816;28;20494;-70
2023/09/26 12:52:40;;;;;;;2.08;1.13;;;30.70;72.50;;;;;;5106363;28;20100;-65
2023/09/26 12:55:07;;;;;;;2.45;1.13;;;30.50;72.10;;;;;;5092340;28;20042;-64
2023/09/26 12:57:33;;;;;;;1.50;1.40;;;30.30;71.70;;;;;;5103528;28;20020;-71
2023/09/26 12:59:59;;;;;;;1.20;1.10;;;30.20;72.60;;;;;;5090439;28;20111;-68
2023/09/26 13:02:25;;;;;;;2.25;1.42;;;30.00;72.40;;;;;;5095618;28;20066;-69
2023/09/26 13:04:55;;;;;;;3.72;1.20;;;29.80;72.40;;;;;;5097921;28;20051;-69
2023/09/26 13:07:21;;;;;;;;;;;29.70;73.20;;;;;;5087772;28;20028;-68
2023/09/26 13:09:47;;;;;;;3.05;1.20;;;29.60;73.80;;;;;;5110323;28;19913;-68
2023/09/26 13:12:13;;;;;;;3.15;1.33;;;29.40;73.50;;;;;;5094324;28;20020;-71
2023/09/26 13:14:40;;;;;;;2.33;1.20;;;29.30;73.80;;;;;;5095310;28;20027;-68
2023/09/26 13:17:07;;;;;;;4.25;1.40;;;29.20;75.40;;;;;;5109377;28;20034;-67
2023/09/26 13:19:32;;;;;;;2.85;1.58;;;29.00;74.40;;;;;;5099515;28;20046;-68
2023/09/26 13:21:58;;;;;;;4.13;1.35;;;28.80;74.00;;;;;;5101887;28;20024;-68
2023/09/26 13:24:25;;;;;;;2.50;1.13;;;28.60;73.30;;;;;;5096709;28;20027;-67
2023/09/26 13:26:51;;;;;;;1.40;1.20;;;28.40;75.30;;;;;;5092302;28;20032;-68
2023/09/26 13:29:19;;;;;;;4.30;1.45;;;28.30;74.60;;;;;;5094087;28;20032;-68
2023/09/26 13:31:46;;;;;;;1.48;1.17;;;28.20;74.70;;;;;;5095291;28;20115;-67
2023/09/26 13:34:12;;;;;;;1.48;1.20;;;28.10;74.50;;;;;;5096848;28;20036;-71
2023/09/26 13:36:38;;;;;;;1.45;1.13;;;27.70;74.30;;;;;;5094062;28;20028;-67
2023/09/26 13:39:04;;;;;;;3.67;0.85;;;27.40;74.80;;;;;;5097158;28;20072;-72
2023/09/26 13:41:30;;;;;;;1.65;0.90;;;27.20;75.10;;;;;;5094959;28;20024;-68
2023/09/26 13:43:56;;;;;;;2.28;1.25;;;27.20;74.50;;;;;;5110013;28;20392;-68
2023/09/26 13:46:22;;;;;;;1.15;0.98;;;27.20;74.40;;;;;;5097858;28;20051;-68
2023/09/26 13:48:49;;;;;;;3.17;1.30;;;27.10;74.50;;;;;;5095768;28;20332;-67